Fort Scott, Kansas
Current Conditions -  °F | °C
As of 2:35 PM on Monday 22 Dec 2014 (Local Time) from KPTS Reporting Station
Drizzle Drizzle  
Wind Chill: 51°   Ceiling: 600
Heat Index: 51°   Visibility: 2.5mi
Dew Point: 51°   Wind: 7mph
Humidity: 100%   Direction: 270°W
Pressure: 29.47"   Gusts: NA
Location:  37.84°N, 94.7°W
Report Text: KPTS 222035Z AUTO 27006KT 2 1/2SM DZ BKN006 BKN009 OVC018 11/11 A2947 RMK AO2 P0001 T01050106
Loading
Personal Weather Stations






























Interactive Weather Map New forecast layout! Learn more

10-Day Weather Forecast

Advertisements
Track Severe Weather on mobile